sensor_id;sensor_type;location;lat;lon;timestamp;P1;durP1;ratioP1;P2;durP2;ratioP2
15383;SDS011;7790;53.022;12.968;2022-07-04T00:00:00;4.03;;;2.77;;
15383;SDS011;7790;53.022;12.968;2022-07-04T00:04:01;2.70;;;2.50;;
15383;SDS011;7790;53.022;12.968;2022-07-04T00:08:01;2.63;;;2.43;;
15383;SDS011;7790;53.022;12.968;2022-07-04T00:12:02;3.10;;;2.57;;
15383;SDS011;7790;53.022;12.968;2022-07-04T00:16:04;4.30;;;2.90;;
15383;SDS011;7790;53.022;12.968;2022-07-04T00:20:05;4.77;;;2.73;;
15383;SDS011;7790;53.022;12.968;2022-07-04T00:24:07;2.90;;;2.60;;
15383;SDS011;7790;53.022;12.968;2022-07-04T00:28:08;2.90;;;2.60;;
15383;SDS011;7790;53.022;12.968;2022-07-04T00:32:08;3.23;;;2.93;;
15383;SDS011;7790;53.022;12.968;2022-07-04T00:36:11;3.10;;;2.87;;
15383;SDS011;7790;53.022;12.968;2022-07-04T00:40:12;3.70;;;3.10;;
15383;SDS011;7790;53.022;12.968;2022-07-04T00:44:13;3.53;;;2.80;;
15383;SDS011;7790;53.022;12.968;2022-07-04T00:48:15;3.00;;;2.73;;
15383;SDS011;7790;53.022;12.968;2022-07-04T00:52:16;2.80;;;2.50;;
15383;SDS011;7790;53.022;12.968;2022-07-04T00:56:17;3.37;;;2.70;;
15383;SDS011;7790;53.022;12.968;2022-07-04T01:00:18;5.40;;;3.10;;
15383;SDS011;7790;53.022;12.968;2022-07-04T01:04:19;4.47;;;2.80;;
15383;SDS011;7790;53.022;12.968;2022-07-04T01:08:20;4.83;;;3.10;;
15383;SDS011;7790;53.022;12.968;2022-07-04T01:12:30;3.50;;;2.93;;
15383;SDS011;7790;53.022;12.968;2022-07-04T01:16:31;6.47;;;3.00;;
15383;SDS011;7790;53.022;12.968;2022-07-04T01:20:33;5.80;;;3.20;;
15383;SDS011;7790;53.022;12.968;2022-07-04T01:24:35;3.47;;;3.00;;
15383;SDS011;7790;53.022;12.968;2022-07-04T01:28:36;3.00;;;2.80;;
15383;SDS011;7790;53.022;12.968;2022-07-04T01:32:37;3.33;;;2.90;;
15383;SDS011;7790;53.022;12.968;2022-07-04T01:36:38;3.03;;;2.83;;
15383;SDS011;7790;53.022;12.968;2022-07-04T01:40:38;3.93;;;2.90;;
15383;SDS011;7790;53.022;12.968;2022-07-04T01:44:39;3.33;;;3.00;;
15383;SDS011;7790;53.022;12.968;2022-07-04T01:48:40;4.57;;;3.17;;
15383;SDS011;7790;53.022;12.968;2022-07-04T01:52:41;3.40;;;3.10;;
15383;SDS011;7790;53.022;12.968;2022-07-04T01:56:43;3.00;;;2.70;;
15383;SDS011;7790;53.022;12.968;2022-07-04T02:00:44;3.97;;;2.90;;
15383;SDS011;7790;53.022;12.968;2022-07-04T02:05:03;5.30;;;2.90;;
15383;SDS011;7790;53.022;12.968;2022-07-04T02:09:04;3.70;;;3.00;;
15383;SDS011;7790;53.022;12.968;2022-07-04T02:13:17;2.77;;;2.57;;
15383;SDS011;7790;53.022;12.968;2022-07-04T02:17:18;3.23;;;2.70;;
15383;SDS011;7790;53.022;12.968;2022-07-04T02:21:19;3.40;;;3.10;;
15383;SDS011;7790;53.022;12.968;2022-07-04T02:25:20;3.83;;;3.03;;
15383;SDS011;7790;53.022;12.968;2022-07-04T02:29:20;4.57;;;3.07;;
15383;SDS011;7790;53.022;12.968;2022-07-04T02:33:21;3.27;;;2.90;;
15383;SDS011;7790;53.022;12.968;2022-07-04T02:37:22;4.70;;;2.80;;
15383;SDS011;7790;53.022;12.968;2022-07-04T02:41:23;3.63;;;3.00;;
15383;SDS011;7790;53.022;12.968;2022-07-04T02:45:24;3.33;;;3.03;;
15383;SDS011;7790;53.022;12.968;2022-07-04T02:49:24;3.43;;;2.80;;
15383;SDS011;7790;53.022;12.968;2022-07-04T02:53:25;5.10;;;2.90;;
15383;SDS011;7790;53.022;12.968;2022-07-04T02:57:26;3.67;;;2.80;;
15383;SDS011;7790;53.022;12.968;2022-07-04T03:01:27;3.77;;;3.00;;
15383;SDS011;7790;53.022;12.968;2022-07-04T03:05:28;3.07;;;2.80;;
15383;SDS011;7790;53.022;12.968;2022-07-04T03:09:31;3.03;;;2.83;;
15383;SDS011;7790;53.022;12.968;2022-07-04T03:13:32;4.63;;;3.00;;
15383;SDS011;7790;53.022;12.968;2022-07-04T03:17:34;5.00;;;2.70;;
15383;SDS011;7790;53.022;12.968;2022-07-04T03:21:35;3.23;;;2.83;;
15383;SDS011;7790;53.022;12.968;2022-07-04T03:25:36;5.30;;;2.83;;
15383;SDS011;7790;53.022;12.968;2022-07-04T03:29:37;3.20;;;2.90;;
15383;SDS011;7790;53.022;12.968;2022-07-04T03:33:38;3.53;;;3.20;;
15383;SDS011;7790;53.022;12.968;2022-07-04T03:37:39;2.90;;;2.70;;
15383;SDS011;7790;53.022;12.968;2022-07-04T03:41:40;3.73;;;3.07;;
15383;SDS011;7790;53.022;12.968;2022-07-04T03:45:40;2.93;;;2.63;;
15383;SDS011;7790;53.022;12.968;2022-07-04T03:49:41;4.23;;;2.83;;
15383;SDS011;7790;53.022;12.968;2022-07-04T03:53:42;3.13;;;2.60;;
15383;SDS011;7790;53.022;12.968;2022-07-04T03:57:43;4.67;;;2.77;;
15383;SDS011;7790;53.022;12.968;2022-07-04T04:01:43;3.63;;;2.57;;
15383;SDS011;7790;53.022;12.968;2022-07-04T04:05:44;3.37;;;2.60;;
15383;SDS011;7790;53.022;12.968;2022-07-04T04:09:45;3.40;;;2.80;;
15383;SDS011;7790;53.022;12.968;2022-07-04T04:13:46;3.23;;;2.77;;
15383;SDS011;7790;53.022;12.968;2022-07-04T04:17:47;3.30;;;2.60;;
15383;SDS011;7790;53.022;12.968;2022-07-04T04:21:48;3.40;;;2.43;;
15383;SDS011;7790;53.022;12.968;2022-07-04T04:25:49;3.43;;;2.30;;
15383;SDS011;7790;53.022;12.968;2022-07-04T04:29:49;4.60;;;3.03;;
15383;SDS011;7790;53.022;12.968;2022-07-04T04:33:50;2.80;;;2.57;;
15383;SDS011;7790;53.022;12.968;2022-07-04T04:37:51;4.53;;;2.50;;
15383;SDS011;7790;53.022;12.968;2022-07-04T04:41:52;4.30;;;2.47;;
15383;SDS011;7790;53.022;12.968;2022-07-04T04:45:53;3.57;;;2.20;;
15383;SDS011;7790;53.022;12.968;2022-07-04T04:49:54;2.13;;;2.03;;
15383;SDS011;7790;53.022;12.968;2022-07-04T04:53:54;4.90;;;2.07;;
15383;SDS011;7790;53.022;12.968;2022-07-04T04:57:55;4.37;;;2.47;;
15383;SDS011;7790;53.022;12.968;2022-07-04T05:01:56;3.57;;;2.20;;
15383;SDS011;7790;53.022;12.968;2022-07-04T05:05:58;7.90;;;2.10;;
15383;SDS011;7790;53.022;12.968;2022-07-04T05:09:59;3.50;;;2.00;;
15383;SDS011;7790;53.022;12.968;2022-07-04T05:13:59;2.80;;;2.00;;
15383;SDS011;7790;53.022;12.968;2022-07-04T05:18:00;3.23;;;2.00;;
15383;SDS011;7790;53.022;12.968;2022-07-04T05:22:01;2.13;;;1.60;;
15383;SDS011;7790;53.022;12.968;2022-07-04T05:26:02;1.93;;;1.77;;
15383;SDS011;7790;53.022;12.968;2022-07-04T05:30:03;2.80;;;1.60;;
15383;SDS011;7790;53.022;12.968;2022-07-04T05:34:04;2.47;;;1.73;;
15383;SDS011;7790;53.022;12.968;2022-07-04T05:38:05;4.23;;;1.50;;
15383;SDS011;7790;53.022;12.968;2022-07-04T05:42:06;3.27;;;1.60;;
15383;SDS011;7790;53.022;12.968;2022-07-04T05:46:07;4.77;;;1.60;;
15383;SDS011;7790;53.022;12.968;2022-07-04T05:50:09;4.07;;;1.50;;
15383;SDS011;7790;53.022;12.968;2022-07-04T05:54:10;1.50;;;1.40;;
15383;SDS011;7790;53.022;12.968;2022-07-04T05:58:11;4.27;;;1.50;;
15383;SDS011;7790;53.022;12.968;2022-07-04T06:02:12;2.33;;;1.37;;
15383;SDS011;7790;53.022;12.968;2022-07-04T06:06:14;2.27;;;1.40;;
15383;SDS011;7790;53.022;12.968;2022-07-04T06:10:15;5.17;;;1.63;;
15383;SDS011;7790;53.022;12.968;2022-07-04T06:14:17;4.70;;;1.90;;
15383;SDS011;7790;53.022;12.968;2022-07-04T06:18:18;3.17;;;1.50;;
15383;SDS011;7790;53.022;12.968;2022-07-04T06:22:19;5.57;;;1.63;;
15383;SDS011;7790;53.022;12.968;2022-07-04T06:26:20;4.97;;;1.50;;
15383;SDS011;7790;53.022;12.968;2022-07-04T06:30:20;3.97;;;1.30;;
15383;SDS011;7790;53.022;12.968;2022-07-04T06:34:21;3.07;;;1.27;;
15383;SDS011;7790;53.022;12.968;2022-07-04T06:38:41;2.77;;;1.10;;
15383;SDS011;7790;53.022;12.968;2022-07-04T06:42:42;2.03;;;1.10;;
15383;SDS011;7790;53.022;12.968;2022-07-04T06:46:43;2.03;;;1.37;;
15383;SDS011;7790;53.022;12.968;2022-07-04T06:50:45;1.03;;;1.00;;
15383;SDS011;7790;53.022;12.968;2022-07-04T06:54:46;1.33;;;0.90;;
15383;SDS011;7790;53.022;12.968;2022-07-04T06:58:47;8.07;;;1.53;;
15383;SDS011;7790;53.022;12.968;2022-07-04T07:02:48;3.67;;;1.13;;
15383;SDS011;7790;53.022;12.968;2022-07-04T07:06:48;3.57;;;1.20;;
15383;SDS011;7790;53.022;12.968;2022-07-04T07:10:49;3.27;;;1.10;;
15383;SDS011;7790;53.022;12.968;2022-07-04T07:14:51;6.03;;;1.40;;
15383;SDS011;7790;53.022;12.968;2022-07-04T07:18:52;6.07;;;1.20;;
15383;SDS011;7790;53.022;12.968;2022-07-04T07:22:53;4.90;;;1.53;;
15383;SDS011;7790;53.022;12.968;2022-07-04T07:26:53;9.73;;;1.40;;
15383;SDS011;7790;53.022;12.968;2022-07-04T07:30:54;10.07;;;2.07;;
15383;SDS011;7790;53.022;12.968;2022-07-04T07:34:55;3.10;;;1.50;;
15383;SDS011;7790;53.022;12.968;2022-07-04T07:38:56;7.00;;;1.43;;
15383;SDS011;7790;53.022;12.968;2022-07-04T07:42:57;2.33;;;1.00;;
15383;SDS011;7790;53.022;12.968;2022-07-04T07:46:57;4.63;;;1.23;;
15383;SDS011;7790;53.022;12.968;2022-07-04T07:50:58;5.47;;;1.40;;
15383;SDS011;7790;53.022;12.968;2022-07-04T07:54:59;4.27;;;1.27;;
15383;SDS011;7790;53.022;12.968;2022-07-04T07:59:00;2.53;;;1.07;;
15383;SDS011;7790;53.022;12.968;2022-07-04T08:03:01;1.30;;;0.90;;
15383;SDS011;7790;53.022;12.968;2022-07-04T08:07:20;3.40;;;1.17;;
15383;SDS011;7790;53.022;12.968;2022-07-04T08:11:21;3.53;;;0.83;;
15383;SDS011;7790;53.022;12.968;2022-07-04T08:15:22;3.00;;;1.13;;
15383;SDS011;7790;53.022;12.968;2022-07-04T08:19:23;3.23;;;1.07;;
15383;SDS011;7790;53.022;12.968;2022-07-04T08:23:25;1.43;;;0.97;;
15383;SDS011;7790;53.022;12.968;2022-07-04T08:27:26;2.17;;;1.07;;
15383;SDS011;7790;53.022;12.968;2022-07-04T08:31:27;1.43;;;0.80;;
15383;SDS011;7790;53.022;12.968;2022-07-04T08:35:28;3.03;;;1.00;;
15383;SDS011;7790;53.022;12.968;2022-07-04T08:39:29;3.83;;;1.30;;
15383;SDS011;7790;53.022;12.968;2022-07-04T08:43:30;2.17;;;1.07;;
15383;SDS011;7790;53.022;12.968;2022-07-04T08:47:36;1.47;;;1.00;;
15383;SDS011;7790;53.022;12.968;2022-07-04T08:55:53;1.60;;;1.10;;
15383;SDS011;7790;53.022;12.968;2022-07-04T09:00:13;1.37;;;1.00;;
15383;SDS011;7790;53.022;12.968;2022-07-04T09:04:14;2.80;;;0.90;;
15383;SDS011;7790;53.022;12.968;2022-07-04T09:08:16;2.20;;;1.00;;
15383;SDS011;7790;53.022;12.968;2022-07-04T09:12:17;2.40;;;0.90;;
15383;SDS011;7790;53.022;12.968;2022-07-04T09:16:17;1.43;;;1.00;;
15383;SDS011;7790;53.022;12.968;2022-07-04T09:20:19;1.10;;;0.90;;
15383;SDS011;7790;53.022;12.968;2022-07-04T09:28:44;2.70;;;1.20;;
15383;SDS011;7790;53.022;12.968;2022-07-04T09:32:58;1.20;;;1.10;;
15383;SDS011;7790;53.022;12.968;2022-07-04T09:37:04;3.53;;;1.27;;
15383;SDS011;7790;53.022;12.968;2022-07-04T09:41:05;2.20;;;1.20;;
15383;SDS011;7790;53.022;12.968;2022-07-04T09:45:25;1.90;;;1.20;;
15383;SDS011;7790;53.022;12.968;2022-07-04T09:49:27;2.30;;;1.13;;
15383;SDS011;7790;53.022;12.968;2022-07-04T09:53:27;3.87;;;1.23;;
15383;SDS011;7790;53.022;12.968;2022-07-04T09:57:29;1.77;;;1.07;;
15383;SDS011;7790;53.022;12.968;2022-07-04T10:01:30;0.90;;;0.90;;
15383;SDS011;7790;53.022;12.968;2022-07-04T10:05:30;2.40;;;0.90;;
15383;SDS011;7790;53.022;12.968;2022-07-04T10:09:31;0.87;;;0.80;;
15383;SDS011;7790;53.022;12.968;2022-07-04T10:13:32;3.30;;;1.13;;
15383;SDS011;7790;53.022;12.968;2022-07-04T10:17:33;1.63;;;1.00;;
15383;SDS011;7790;53.022;12.968;2022-07-04T10:21:34;2.90;;;1.10;;
15383;SDS011;7790;53.022;12.968;2022-07-04T10:25:35;2.43;;;1.30;;
15383;SDS011;7790;53.022;12.968;2022-07-04T10:29:36;2.33;;;0.83;;
15383;SDS011;7790;53.022;12.968;2022-07-04T10:33:38;1.00;;;0.93;;
15383;SDS011;7790;53.022;12.968;2022-07-04T10:42:03;4.23;;;0.97;;
15383;SDS011;7790;53.022;12.968;2022-07-04T10:50:20;1.53;;;0.93;;
15383;SDS011;7790;53.022;12.968;2022-07-04T10:54:35;3.23;;;0.80;;
15383;SDS011;7790;53.022;12.968;2022-07-04T10:58:39;0.97;;;0.80;;
15383;SDS011;7790;53.022;12.968;2022-07-04T11:02:40;1.20;;;0.90;;
15383;SDS011;7790;53.022;12.968;2022-07-04T11:10:52;1.53;;;0.97;;
15383;SDS011;7790;53.022;12.968;2022-07-04T11:15:05;1.73;;;1.20;;
15383;SDS011;7790;53.022;12.968;2022-07-04T11:19:06;2.13;;;1.10;;
15383;SDS011;7790;53.022;12.968;2022-07-04T11:23:11;1.00;;;0.90;;
15383;SDS011;7790;53.022;12.968;2022-07-04T11:27:13;1.60;;;0.90;;
15383;SDS011;7790;53.022;12.968;2022-07-04T11:31:14;2.33;;;0.90;;
15383;SDS011;7790;53.022;12.968;2022-07-04T11:35:19;1.87;;;0.70;;
15383;SDS011;7790;53.022;12.968;2022-07-04T11:39:20;1.73;;;0.80;;
15383;SDS011;7790;53.022;12.968;2022-07-04T11:43:21;1.63;;;1.03;;
15383;SDS011;7790;53.022;12.968;2022-07-04T11:47:41;2.57;;;1.17;;
15383;SDS011;7790;53.022;12.968;2022-07-04T11:51:46;2.03;;;1.00;;
15383;SDS011;7790;53.022;12.968;2022-07-04T11:55:54;3.00;;;1.00;;
15383;SDS011;7790;53.022;12.968;2022-07-04T11:59:58;1.20;;;0.87;;
15383;SDS011;7790;53.022;12.968;2022-07-04T12:04:10;0.90;;;0.90;;
15383;SDS011;7790;53.022;12.968;2022-07-04T12:08:18;1.33;;;1.03;;
15383;SDS011;7790;53.022;12.968;2022-07-04T12:12:19;1.70;;;0.90;;
15383;SDS011;7790;53.022;12.968;2022-07-04T12:16:21;0.70;;;0.70;;
15383;SDS011;7790;53.022;12.968;2022-07-04T12:20:22;1.20;;;0.70;;
15383;SDS011;7790;53.022;12.968;2022-07-04T12:24:26;0.97;;;0.60;;
15383;SDS011;7790;53.022;12.968;2022-07-04T12:28:33;0.87;;;0.87;;
15383;SDS011;7790;53.022;12.968;2022-07-04T12:32:45;1.40;;;0.80;;
15383;SDS011;7790;53.022;12.968;2022-07-04T12:36:51;1.70;;;0.50;;
15383;SDS011;7790;53.022;12.968;2022-07-04T12:41:00;0.60;;;0.60;;
15383;SDS011;7790;53.022;12.968;2022-07-04T12:45:08;1.30;;;0.90;;
15383;SDS011;7790;53.022;12.968;2022-07-04T12:49:09;1.03;;;0.70;;
15383;SDS011;7790;53.022;12.968;2022-07-04T12:53:18;1.00;;;0.90;;
15383;SDS011;7790;53.022;12.968;2022-07-04T12:57:19;0.90;;;0.70;;
15383;SDS011;7790;53.022;12.968;2022-07-04T13:01:20;0.80;;;0.80;;
15383;SDS011;7790;53.022;12.968;2022-07-04T13:05:21;0.90;;;0.70;;
15383;SDS011;7790;53.022;12.968;2022-07-04T13:09:22;0.90;;;0.80;;
15383;SDS011;7790;53.022;12.968;2022-07-04T13:13:23;1.43;;;0.60;;
15383;SDS011;7790;53.022;12.968;2022-07-04T13:17:24;0.80;;;0.70;;
15383;SDS011;7790;53.022;12.968;2022-07-04T13:21:26;0.60;;;0.60;;
15383;SDS011;7790;53.022;12.968;2022-07-04T13:25:26;1.37;;;0.80;;
15383;SDS011;7790;53.022;12.968;2022-07-04T13:29:27;0.63;;;0.63;;
15383;SDS011;7790;53.022;12.968;2022-07-04T13:33:28;0.87;;;0.80;;
15383;SDS011;7790;53.022;12.968;2022-07-04T13:37:29;0.70;;;0.70;;
15383;SDS011;7790;53.022;12.968;2022-07-04T13:41:30;2.03;;;0.70;;
15383;SDS011;7790;53.022;12.968;2022-07-04T13:45:32;2.50;;;1.10;;
15383;SDS011;7790;53.022;12.968;2022-07-04T13:49:33;2.90;;;1.10;;
15383;SDS011;7790;53.022;12.968;2022-07-04T13:53:34;2.83;;;0.80;;
15383;SDS011;7790;53.022;12.968;2022-07-04T13:57:37;0.97;;;0.70;;
15383;SDS011;7790;53.022;12.968;2022-07-04T14:01:38;2.30;;;0.90;;
15383;SDS011;7790;53.022;12.968;2022-07-04T14:05:42;7.07;;;1.10;;
15383;SDS011;7790;53.022;12.968;2022-07-04T14:09:44;4.80;;;1.50;;
15383;SDS011;7790;53.022;12.968;2022-07-04T14:13:44;3.23;;;1.23;;
15383;SDS011;7790;53.022;12.968;2022-07-04T14:17:45;2.97;;;0.97;;
15383;SDS011;7790;53.022;12.968;2022-07-04T14:21:46;1.40;;;0.90;;
15383;SDS011;7790;53.022;12.968;2022-07-04T14:25:48;5.60;;;1.10;;
15383;SDS011;7790;53.022;12.968;2022-07-04T14:29:49;2.93;;;0.90;;
15383;SDS011;7790;53.022;12.968;2022-07-04T14:33:50;2.33;;;0.93;;
15383;SDS011;7790;53.022;12.968;2022-07-04T14:37:51;2.20;;;1.00;;
15383;SDS011;7790;53.022;12.968;2022-07-04T14:41:55;1.93;;;0.80;;
15383;SDS011;7790;53.022;12.968;2022-07-04T14:45:56;2.53;;;1.10;;
15383;SDS011;7790;53.022;12.968;2022-07-04T14:49:57;2.10;;;1.10;;
15383;SDS011;7790;53.022;12.968;2022-07-04T14:53:58;6.50;;;1.03;;
15383;SDS011;7790;53.022;12.968;2022-07-04T14:57:58;4.93;;;1.20;;
15383;SDS011;7790;53.022;12.968;2022-07-04T15:02:00;4.33;;;1.30;;
15383;SDS011;7790;53.022;12.968;2022-07-04T15:06:00;4.70;;;1.00;;
15383;SDS011;7790;53.022;12.968;2022-07-04T15:10:01;3.03;;;1.20;;
15383;SDS011;7790;53.022;12.968;2022-07-04T15:14:02;3.87;;;1.20;;
15383;SDS011;7790;53.022;12.968;2022-07-04T15:18:03;7.23;;;1.20;;
15383;SDS011;7790;53.022;12.968;2022-07-04T15:22:04;12.27;;;1.60;;
15383;SDS011;7790;53.022;12.968;2022-07-04T15:26:23;8.03;;;1.70;;
15383;SDS011;7790;53.022;12.968;2022-07-04T15:30:24;17.17;;;1.90;;
15383;SDS011;7790;53.022;12.968;2022-07-04T15:34:25;11.87;;;1.83;;
15383;SDS011;7790;53.022;12.968;2022-07-04T15:38:25;7.33;;;1.30;;
15383;SDS011;7790;53.022;12.968;2022-07-04T15:42:27;11.37;;;1.90;;
15383;SDS011;7790;53.022;12.968;2022-07-04T15:46:29;10.60;;;1.90;;
15383;SDS011;7790;53.022;12.968;2022-07-04T15:50:30;10.00;;;2.20;;
15383;SDS011;7790;53.022;12.968;2022-07-04T15:54:31;8.37;;;1.43;;
15383;SDS011;7790;53.022;12.968;2022-07-04T15:58:32;17.23;;;1.70;;
15383;SDS011;7790;53.022;12.968;2022-07-04T16:02:33;7.10;;;1.67;;
15383;SDS011;7790;53.022;12.968;2022-07-04T16:06:34;8.27;;;1.90;;
15383;SDS011;7790;53.022;12.968;2022-07-04T16:10:35;5.50;;;1.50;;
15383;SDS011;7790;53.022;12.968;2022-07-04T16:14:36;6.43;;;1.67;;
15383;SDS011;7790;53.022;12.968;2022-07-04T16:18:37;5.27;;;1.47;;
15383;SDS011;7790;53.022;12.968;2022-07-04T16:22:38;4.70;;;1.23;;
15383;SDS011;7790;53.022;12.968;2022-07-04T16:26:39;4.70;;;1.37;;
15383;SDS011;7790;53.022;12.968;2022-07-04T16:30:40;4.17;;;1.30;;
15383;SDS011;7790;53.022;12.968;2022-07-04T16:34:41;8.40;;;1.57;;
15383;SDS011;7790;53.022;12.968;2022-07-04T16:38:41;4.73;;;1.07;;
15383;SDS011;7790;53.022;12.968;2022-07-04T16:42:42;6.03;;;1.00;;
15383;SDS011;7790;53.022;12.968;2022-07-04T16:46:43;4.23;;;1.10;;
15383;SDS011;7790;53.022;12.968;2022-07-04T16:50:45;2.00;;;0.80;;
15383;SDS011;7790;53.022;12.968;2022-07-04T16:54:47;3.17;;;0.93;;
15383;SDS011;7790;53.022;12.968;2022-07-04T16:58:48;2.13;;;0.90;;
15383;SDS011;7790;53.022;12.968;2022-07-04T17:02:48;1.77;;;0.93;;
15383;SDS011;7790;53.022;12.968;2022-07-04T17:06:49;1.50;;;0.70;;
15383;SDS011;7790;53.022;12.968;2022-07-04T17:10:50;2.70;;;1.00;;
15383;SDS011;7790;53.022;12.968;2022-07-04T17:14:51;2.13;;;0.90;;
15383;SDS011;7790;53.022;12.968;2022-07-04T17:18:52;1.80;;;0.50;;
15383;SDS011;7790;53.022;12.968;2022-07-04T17:22:52;2.57;;;0.60;;
15383;SDS011;7790;53.022;12.968;2022-07-04T17:26:53;1.03;;;0.80;;
15383;SDS011;7790;53.022;12.968;2022-07-04T17:30:54;0.90;;;0.63;;
15383;SDS011;7790;53.022;12.968;2022-07-04T17:34:56;0.83;;;0.80;;
15383;SDS011;7790;53.022;12.968;2022-07-04T17:38:56;3.47;;;1.23;;
15383;SDS011;7790;53.022;12.968;2022-07-04T17:42:57;5.70;;;1.10;;
15383;SDS011;7790;53.022;12.968;2022-07-04T17:46:58;5.53;;;1.13;;
15383;SDS011;7790;53.022;12.968;2022-07-04T17:50:59;2.93;;;0.70;;
15383;SDS011;7790;53.022;12.968;2022-07-04T17:55:00;2.13;;;0.70;;
15383;SDS011;7790;53.022;12.968;2022-07-04T17:59:01;3.93;;;1.00;;
15383;SDS011;7790;53.022;12.968;2022-07-04T18:03:02;2.80;;;0.73;;
15383;SDS011;7790;53.022;12.968;2022-07-04T18:07:03;3.47;;;1.07;;
15383;SDS011;7790;53.022;12.968;2022-07-04T18:11:05;3.23;;;1.00;;
15383;SDS011;7790;53.022;12.968;2022-07-04T18:15:07;5.17;;;1.00;;
15383;SDS011;7790;53.022;12.968;2022-07-04T18:19:08;3.07;;;0.93;;
15383;SDS011;7790;53.022;12.968;2022-07-04T18:23:09;2.80;;;1.00;;
15383;SDS011;7790;53.022;12.968;2022-07-04T18:27:10;2.13;;;0.80;;
15383;SDS011;7790;53.022;12.968;2022-07-04T18:31:11;3.17;;;0.90;;
15383;SDS011;7790;53.022;12.968;2022-07-04T18:35:13;2.50;;;1.00;;
15383;SDS011;7790;53.022;12.968;2022-07-04T18:39:14;4.90;;;1.23;;
15383;SDS011;7790;53.022;12.968;2022-07-04T18:43:15;12.30;;;1.60;;
15383;SDS011;7790;53.022;12.968;2022-07-04T18:47:25;4.57;;;0.87;;
15383;SDS011;7790;53.022;12.968;2022-07-04T18:51:26;5.17;;;0.90;;
15383;SDS011;7790;53.022;12.968;2022-07-04T18:55:29;1.87;;;0.90;;
15383;SDS011;7790;53.022;12.968;2022-07-04T18:59:30;1.23;;;0.80;;
15383;SDS011;7790;53.022;12.968;2022-07-04T19:03:31;3.23;;;0.80;;
15383;SDS011;7790;53.022;12.968;2022-07-04T19:07:32;1.43;;;1.00;;
15383;SDS011;7790;53.022;12.968;2022-07-04T19:11:33;1.53;;;0.60;;
15383;SDS011;7790;53.022;12.968;2022-07-04T19:15:34;5.43;;;1.30;;
15383;SDS011;7790;53.022;12.968;2022-07-04T19:19:36;3.37;;;1.10;;
15383;SDS011;7790;53.022;12.968;2022-07-04T19:23:37;5.80;;;1.27;;
15383;SDS011;7790;53.022;12.968;2022-07-04T19:27:37;16.30;;;9.27;;
15383;SDS011;7790;53.022;12.968;2022-07-04T19:31:38;4.57;;;2.30;;
15383;SDS011;7790;53.022;12.968;2022-07-04T19:35:39;5.60;;;1.70;;
15383;SDS011;7790;53.022;12.968;2022-07-04T19:39:40;2.07;;;1.40;;
15383;SDS011;7790;53.022;12.968;2022-07-04T19:43:42;3.33;;;1.20;;
15383;SDS011;7790;53.022;12.968;2022-07-04T19:47:43;2.10;;;1.37;;
15383;SDS011;7790;53.022;12.968;2022-07-04T19:51:43;3.10;;;1.17;;
15383;SDS011;7790;53.022;12.968;2022-07-04T19:56:03;2.70;;;1.10;;
15383;SDS011;7790;53.022;12.968;2022-07-04T20:00:05;1.27;;;0.90;;
15383;SDS011;7790;53.022;12.968;2022-07-04T20:04:07;3.23;;;1.17;;
15383;SDS011;7790;53.022;12.968;2022-07-04T20:08:08;1.03;;;0.80;;
15383;SDS011;7790;53.022;12.968;2022-07-04T20:12:09;1.73;;;1.17;;
15383;SDS011;7790;53.022;12.968;2022-07-04T20:16:10;1.10;;;1.00;;
15383;SDS011;7790;53.022;12.968;2022-07-04T20:20:13;3.97;;;1.07;;
15383;SDS011;7790;53.022;12.968;2022-07-04T20:24:14;0.80;;;0.70;;
15383;SDS011;7790;53.022;12.968;2022-07-04T20:28:15;3.97;;;0.80;;
15383;SDS011;7790;53.022;12.968;2022-07-04T20:32:15;3.70;;;0.83;;
15383;SDS011;7790;53.022;12.968;2022-07-04T20:36:16;2.63;;;0.90;;
15383;SDS011;7790;53.022;12.968;2022-07-04T20:40:17;1.27;;;0.90;;
15383;SDS011;7790;53.022;12.968;2022-07-04T20:44:18;2.47;;;1.00;;
15383;SDS011;7790;53.022;12.968;2022-07-04T20:48:19;1.70;;;0.90;;
15383;SDS011;7790;53.022;12.968;2022-07-04T20:52:20;1.70;;;0.90;;
15383;SDS011;7790;53.022;12.968;2022-07-04T20:56:22;4.50;;;1.10;;
15383;SDS011;7790;53.022;12.968;2022-07-04T21:00:22;1.07;;;0.80;;
15383;SDS011;7790;53.022;12.968;2022-07-04T21:04:23;0.97;;;0.70;;
15383;SDS011;7790;53.022;12.968;2022-07-04T21:08:24;0.60;;;0.57;;
15383;SDS011;7790;53.022;12.968;2022-07-04T21:12:25;2.83;;;0.60;;
15383;SDS011;7790;53.022;12.968;2022-07-04T21:16:26;3.20;;;1.03;;
15383;SDS011;7790;53.022;12.968;2022-07-04T21:20:27;2.80;;;1.00;;
15383;SDS011;7790;53.022;12.968;2022-07-04T21:24:27;2.07;;;0.90;;
15383;SDS011;7790;53.022;12.968;2022-07-04T21:28:28;0.77;;;0.70;;
15383;SDS011;7790;53.022;12.968;2022-07-04T21:32:29;1.13;;;0.60;;
15383;SDS011;7790;53.022;12.968;2022-07-04T21:36:30;1.73;;;0.80;;
15383;SDS011;7790;53.022;12.968;2022-07-04T21:40:31;1.60;;;1.10;;
15383;SDS011;7790;53.022;12.968;2022-07-04T21:44:32;0.90;;;0.60;;
15383;SDS011;7790;53.022;12.968;2022-07-04T21:48:33;2.40;;;1.00;;
15383;SDS011;7790;53.022;12.968;2022-07-04T21:52:36;1.80;;;0.77;;
15383;SDS011;7790;53.022;12.968;2022-07-04T21:56:37;0.70;;;0.70;;
15383;SDS011;7790;53.022;12.968;2022-07-04T22:00:39;2.03;;;0.80;;
15383;SDS011;7790;53.022;12.968;2022-07-04T22:04:40;1.43;;;1.07;;
15383;SDS011;7790;53.022;12.968;2022-07-04T22:08:41;1.43;;;1.00;;
15383;SDS011;7790;53.022;12.968;2022-07-04T22:12:42;2.33;;;1.00;;
15383;SDS011;7790;53.022;12.968;2022-07-04T22:16:43;1.53;;;1.10;;
15383;SDS011;7790;53.022;12.968;2022-07-04T22:20:43;1.33;;;0.90;;
15383;SDS011;7790;53.022;12.968;2022-07-04T22:24:44;1.50;;;0.80;;
15383;SDS011;7790;53.022;12.968;2022-07-04T22:28:45;3.10;;;0.90;;
15383;SDS011;7790;53.022;12.968;2022-07-04T22:32:46;3.30;;;1.20;;
15383;SDS011;7790;53.022;12.968;2022-07-04T22:36:47;1.63;;;0.90;;
15383;SDS011;7790;53.022;12.968;2022-07-04T22:40:47;2.47;;;1.10;;
15383;SDS011;7790;53.022;12.968;2022-07-04T22:44:48;0.90;;;0.90;;
15383;SDS011;7790;53.022;12.968;2022-07-04T22:48:49;1.57;;;0.90;;
15383;SDS011;7790;53.022;12.968;2022-07-04T22:52:50;1.23;;;1.07;;
15383;SDS011;7790;53.022;12.968;2022-07-04T22:56:51;1.47;;;1.00;;
15383;SDS011;7790;53.022;12.968;2022-07-04T23:00:52;1.20;;;0.80;;
15383;SDS011;7790;53.022;12.968;2022-07-04T23:04:53;1.20;;;0.87;;
15383;SDS011;7790;53.022;12.968;2022-07-04T23:08:54;1.10;;;0.90;;
15383;SDS011;7790;53.022;12.968;2022-07-04T23:12:54;4.87;;;1.00;;
15383;SDS011;7790;53.022;12.968;2022-07-04T23:16:55;1.17;;;0.90;;
15383;SDS011;7790;53.022;12.968;2022-07-04T23:20:56;1.33;;;0.90;;
15383;SDS011;7790;53.022;12.968;2022-07-04T23:24:58;2.50;;;0.80;;
15383;SDS011;7790;53.022;12.968;2022-07-04T23:28:59;1.37;;;0.90;;
15383;SDS011;7790;53.022;12.968;2022-07-04T23:33:00;1.70;;;1.00;;
15383;SDS011;7790;53.022;12.968;2022-07-04T23:37:01;3.07;;;1.00;;
15383;SDS011;7790;53.022;12.968;2022-07-04T23:41:02;1.73;;;1.00;;
15383;SDS011;7790;53.022;12.968;2022-07-04T23:45:08;0.97;;;0.80;;
15383;SDS011;7790;53.022;12.968;2022-07-04T23:49:09;1.90;;;1.20;;
15383;SDS011;7790;53.022;12.968;2022-07-04T23:53:10;1.43;;;0.97;;
15383;SDS011;7790;53.022;12.968;2022-07-04T23:57:11;1.63;;;1.00;;
